sensor_id;sensor_type;location;lat;lon;timestamp;P1;P2;P0
69123;PMS5003;56232;53.384;-2.732;2023-07-02T00:01:49;14;11;
69123;PMS5003;56232;53.384;-2.732;2023-07-02T00:04:19;10;8;
69123;PMS5003;56232;53.384;-2.732;2023-07-02T00:06:40;10;8;
69123;PMS5003;56232;53.384;-2.732;2023-07-02T00:09:06;11;10;
69123;PMS5003;56232;53.384;-2.732;2023-07-02T00:11:31;10;7;
69123;PMS5003;56232;53.384;-2.732;2023-07-02T00:13:57;9;7;
69123;PMS5003;56232;53.384;-2.732;2023-07-02T00:16:22;10;8;
69123;PMS5003;56232;53.384;-2.732;2023-07-02T00:18:48;10;9;
69123;PMS5003;56232;53.384;-2.732;2023-07-02T00:21:13;11;9;
69123;PMS5003;56232;53.384;-2.732;2023-07-02T00:23:38;11;10;
69123;PMS5003;56232;53.384;-2.732;2023-07-02T00:26:04;10;8;
69123;PMS5003;56232;53.384;-2.732;2023-07-02T00:28:29;7;7;
69123;PMS5003;56232;53.384;-2.732;2023-07-02T00:30:55;8;7;
69123;PMS5003;56232;53.384;-2.732;2023-07-02T00:33:20;9;9;
69123;PMS5003;56232;53.384;-2.732;2023-07-02T00:35:46;9;8;
69123;PMS5003;56232;53.384;-2.732;2023-07-02T00:38:12;10;8;
69123;PMS5003;56232;53.384;-2.732;2023-07-02T00:40:38;11;11;
69123;PMS5003;56232;53.384;-2.732;2023-07-02T00:43:03;11;8;
69123;PMS5003;56232;53.384;-2.732;2023-07-02T00:45:29;11;10;
69123;PMS5003;56232;53.384;-2.732;2023-07-02T00:47:54;14;10;
69123;PMS5003;56232;53.384;-2.732;2023-07-02T00:50:19;7;6;
69123;PMS5003;56232;53.384;-2.732;2023-07-02T00:52:45;6;6;
69123;PMS5003;56232;53.384;-2.732;2023-07-02T00:55:10;8;8;
69123;PMS5003;56232;53.384;-2.732;2023-07-02T00:57:36;11;9;
69123;PMS5003;56232;53.384;-2.732;2023-07-02T01:00:01;14;11;
69123;PMS5003;56232;53.384;-2.732;2023-07-02T01:02:27;9;9;
69123;PMS5003;56232;53.384;-2.732;2023-07-02T01:04:51;9;6;
69123;PMS5003;56232;53.384;-2.732;2023-07-02T01:07:17;14;10;
69123;PMS5003;56232;53.384;-2.732;2023-07-02T01:09:43;8;7;
69123;PMS5003;56232;53.384;-2.732;2023-07-02T01:12:09;11;10;
69123;PMS5003;56232;53.384;-2.732;2023-07-02T01:14:35;9;9;
69123;PMS5003;56232;53.384;-2.732;2023-07-02T01:17:02;7;7;
69123;PMS5003;56232;53.384;-2.732;2023-07-02T01:19:33;8;8;
69123;PMS5003;56232;53.384;-2.732;2023-07-02T01:21:51;9;8;
69123;PMS5003;56232;53.384;-2.732;2023-07-02T01:24:17;8;8;
69123;PMS5003;56232;53.384;-2.732;2023-07-02T01:26:42;9;8;
69123;PMS5003;56232;53.384;-2.732;2023-07-02T01:31:34;8;8;
69123;PMS5003;56232;53.384;-2.732;2023-07-02T01:33:59;11;10;
69123;PMS5003;56232;53.384;-2.732;2023-07-02T01:36:25;10;9;
69123;PMS5003;56232;53.384;-2.732;2023-07-02T01:38:51;12;9;
69123;PMS5003;56232;53.384;-2.732;2023-07-02T01:41:17;12;11;
69123;PMS5003;56232;53.384;-2.732;2023-07-02T01:43:42;13;10;
69123;PMS5003;56232;53.384;-2.732;2023-07-02T01:46:09;9;9;
69123;PMS5003;56232;53.384;-2.732;2023-07-02T01:48:34;8;7;
69123;PMS5003;56232;53.384;-2.732;2023-07-02T01:50:59;11;9;
69123;PMS5003;56232;53.384;-2.732;2023-07-02T01:53:25;10;8;
69123;PMS5003;56232;53.384;-2.732;2023-07-02T01:55:51;9;7;
69123;PMS5003;56232;53.384;-2.732;2023-07-02T01:58:16;12;10;
69123;PMS5003;56232;53.384;-2.732;2023-07-02T02:00:42;12;9;
69123;PMS5003;56232;53.384;-2.732;2023-07-02T02:03:08;15;10;
69123;PMS5003;56232;53.384;-2.732;2023-07-02T02:05:32;14;10;
69123;PMS5003;56232;53.384;-2.732;2023-07-02T02:07:58;12;11;
69123;PMS5003;56232;53.384;-2.732;2023-07-02T02:10:24;10;10;
69123;PMS5003;56232;53.384;-2.732;2023-07-02T02:12:49;9;9;
69123;PMS5003;56232;53.384;-2.732;2023-07-02T02:15:15;14;12;
69123;PMS5003;56232;53.384;-2.732;2023-07-02T02:17:40;9;8;
69123;PMS5003;56232;53.384;-2.732;2023-07-02T02:20:06;10;9;
69123;PMS5003;56232;53.384;-2.732;2023-07-02T02:22:31;11;9;
69123;PMS5003;56232;53.384;-2.732;2023-07-02T02:24:57;8;7;
69123;PMS5003;56232;53.384;-2.732;2023-07-02T02:27:23;10;7;
69123;PMS5003;56232;53.384;-2.732;2023-07-02T02:29:48;10;9;
69123;PMS5003;56232;53.384;-2.732;2023-07-02T02:32:14;7;6;
69123;PMS5003;56232;53.384;-2.732;2023-07-02T02:34:39;14;13;
69123;PMS5003;56232;53.384;-2.732;2023-07-02T02:37:05;10;8;
69123;PMS5003;56232;53.384;-2.732;2023-07-02T02:39:31;11;10;
69123;PMS5003;56232;53.384;-2.732;2023-07-02T02:41:56;13;9;
69123;PMS5003;56232;53.384;-2.732;2023-07-02T02:44:22;9;8;
69123;PMS5003;56232;53.384;-2.732;2023-07-02T02:46:48;11;9;
69123;PMS5003;56232;53.384;-2.732;2023-07-02T02:49:14;11;9;
69123;PMS5003;56232;53.384;-2.732;2023-07-02T02:51:39;9;9;
69123;PMS5003;56232;53.384;-2.732;2023-07-02T02:54:04;8;7;
69123;PMS5003;56232;53.384;-2.732;2023-07-02T02:56:30;9;9;
69123;PMS5003;56232;53.384;-2.732;2023-07-02T02:58:55;8;7;
69123;PMS5003;56232;53.384;-2.732;2023-07-02T03:01:21;12;12;
69123;PMS5003;56232;53.384;-2.732;2023-07-02T03:03:47;14;11;
69123;PMS5003;56232;53.384;-2.732;2023-07-02T03:06:13;9;7;
69123;PMS5003;56232;53.384;-2.732;2023-07-02T03:08:39;8;7;
69123;PMS5003;56232;53.384;-2.732;2023-07-02T03:11:03;9;6;
69123;PMS5003;56232;53.384;-2.732;2023-07-02T03:13:29;10;7;
69123;PMS5003;56232;53.384;-2.732;2023-07-02T03:15:54;11;9;
69123;PMS5003;56232;53.384;-2.732;2023-07-02T03:18:20;10;8;
69123;PMS5003;56232;53.384;-2.732;2023-07-02T03:20:46;9;8;
69123;PMS5003;56232;53.384;-2.732;2023-07-02T03:23:11;12;10;
69123;PMS5003;56232;53.384;-2.732;2023-07-02T03:25:36;10;6;
69123;PMS5003;56232;53.384;-2.732;2023-07-02T03:28:02;11;10;
69123;PMS5003;56232;53.384;-2.732;2023-07-02T03:30:27;18;11;
69123;PMS5003;56232;53.384;-2.732;2023-07-02T03:32:53;7;6;
69123;PMS5003;56232;53.384;-2.732;2023-07-02T03:35:19;7;6;
69123;PMS5003;56232;53.384;-2.732;2023-07-02T03:37:44;7;7;
69123;PMS5003;56232;53.384;-2.732;2023-07-02T03:40:10;13;8;
69123;PMS5003;56232;53.384;-2.732;2023-07-02T03:42:35;10;7;
69123;PMS5003;56232;53.384;-2.732;2023-07-02T03:45:01;11;9;
69123;PMS5003;56232;53.384;-2.732;2023-07-02T03:47:26;8;8;
69123;PMS5003;56232;53.384;-2.732;2023-07-02T03:49:52;10;8;
69123;PMS5003;56232;53.384;-2.732;2023-07-02T03:52:17;8;8;
69123;PMS5003;56232;53.384;-2.732;2023-07-02T03:54:42;8;8;
69123;PMS5003;56232;53.384;-2.732;2023-07-02T03:57:08;10;7;
69123;PMS5003;56232;53.384;-2.732;2023-07-02T03:59:34;9;8;
69123;PMS5003;56232;53.384;-2.732;2023-07-02T04:01:59;8;7;
69123;PMS5003;56232;53.384;-2.732;2023-07-02T04:04:24;11;8;
69123;PMS5003;56232;53.384;-2.732;2023-07-02T04:06:50;9;9;
69123;PMS5003;56232;53.384;-2.732;2023-07-02T04:09:15;8;6;
69123;PMS5003;56232;53.384;-2.732;2023-07-02T04:11:41;8;7;
69123;PMS5003;56232;53.384;-2.732;2023-07-02T04:14:07;6;6;
69123;PMS5003;56232;53.384;-2.732;2023-07-02T04:16:32;10;6;
69123;PMS5003;56232;53.384;-2.732;2023-07-02T04:18:57;6;5;
69123;PMS5003;56232;53.384;-2.732;2023-07-02T04:21:23;10;9;
69123;PMS5003;56232;53.384;-2.732;2023-07-02T04:23:48;7;7;
69123;PMS5003;56232;53.384;-2.732;2023-07-02T04:26:14;7;7;
69123;PMS5003;56232;53.384;-2.732;2023-07-02T04:28:40;5;5;
69123;PMS5003;56232;53.384;-2.732;2023-07-02T04:31:05;9;8;
69123;PMS5003;56232;53.384;-2.732;2023-07-02T04:33:31;12;9;
69123;PMS5003;56232;53.384;-2.732;2023-07-02T04:35:56;10;8;
69123;PMS5003;56232;53.384;-2.732;2023-07-02T04:38:22;10;9;
69123;PMS5003;56232;53.384;-2.732;2023-07-02T04:40:47;10;10;
69123;PMS5003;56232;53.384;-2.732;2023-07-02T04:43:13;9;8;
69123;PMS5003;56232;53.384;-2.732;2023-07-02T04:45:38;12;9;
69123;PMS5003;56232;53.384;-2.732;2023-07-02T04:48:04;8;7;
69123;PMS5003;56232;53.384;-2.732;2023-07-02T04:50:30;11;10;
69123;PMS5003;56232;53.384;-2.732;2023-07-02T04:52:55;7;6;
69123;PMS5003;56232;53.384;-2.732;2023-07-02T04:55:20;10;10;
69123;PMS5003;56232;53.384;-2.732;2023-07-02T04:57:46;11;8;
69123;PMS5003;56232;53.384;-2.732;2023-07-02T05:00:12;10;9;
69123;PMS5003;56232;53.384;-2.732;2023-07-02T05:02:38;6;6;
69123;PMS5003;56232;53.384;-2.732;2023-07-02T05:05:03;9;8;
69123;PMS5003;56232;53.384;-2.732;2023-07-02T05:07:29;5;5;
69123;PMS5003;56232;53.384;-2.732;2023-07-02T05:09:54;8;7;
69123;PMS5003;56232;53.384;-2.732;2023-07-02T05:12:20;10;7;
69123;PMS5003;56232;53.384;-2.732;2023-07-02T05:14:59;14;10;
69123;PMS5003;56232;53.384;-2.732;2023-07-02T05:17:11;6;6;
69123;PMS5003;56232;53.384;-2.732;2023-07-02T05:19:36;10;10;
69123;PMS5003;56232;53.384;-2.732;2023-07-02T05:22:02;8;6;
69123;PMS5003;56232;53.384;-2.732;2023-07-02T05:24:28;11;8;
69123;PMS5003;56232;53.384;-2.732;2023-07-02T05:26:53;9;8;
69123;PMS5003;56232;53.384;-2.732;2023-07-02T05:29:18;10;8;
69123;PMS5003;56232;53.384;-2.732;2023-07-02T05:31:44;7;6;
69123;PMS5003;56232;53.384;-2.732;2023-07-02T05:34:10;6;6;
69123;PMS5003;56232;53.384;-2.732;2023-07-02T05:36:35;9;7;
69123;PMS5003;56232;53.384;-2.732;2023-07-02T05:39:01;10;8;
69123;PMS5003;56232;53.384;-2.732;2023-07-02T05:41:26;12;9;
69123;PMS5003;56232;53.384;-2.732;2023-07-02T05:43:51;12;7;
69123;PMS5003;56232;53.384;-2.732;2023-07-02T05:46:17;12;9;
69123;PMS5003;56232;53.384;-2.732;2023-07-02T05:48:42;9;9;
69123;PMS5003;56232;53.384;-2.732;2023-07-02T05:51:08;11;9;
69123;PMS5003;56232;53.384;-2.732;2023-07-02T05:53:33;10;9;
69123;PMS5003;56232;53.384;-2.732;2023-07-02T05:55:59;8;7;
69123;PMS5003;56232;53.384;-2.732;2023-07-02T05:58:24;10;9;
69123;PMS5003;56232;53.384;-2.732;2023-07-02T06:00:50;7;6;
69123;PMS5003;56232;53.384;-2.732;2023-07-02T06:03:16;11;8;
69123;PMS5003;56232;53.384;-2.732;2023-07-02T06:05:41;10;9;
69123;PMS5003;56232;53.384;-2.732;2023-07-02T06:08:06;11;8;
69123;PMS5003;56232;53.384;-2.732;2023-07-02T06:10:32;9;8;
69123;PMS5003;56232;53.384;-2.732;2023-07-02T06:12:57;10;8;
69123;PMS5003;56232;53.384;-2.732;2023-07-02T06:15:23;10;7;
69123;PMS5003;56232;53.384;-2.732;2023-07-02T06:17:48;9;7;
69123;PMS5003;56232;53.384;-2.732;2023-07-02T06:20:14;5;5;
69123;PMS5003;56232;53.384;-2.732;2023-07-02T06:22:39;8;6;
69123;PMS5003;56232;53.384;-2.732;2023-07-02T06:25:05;7;6;
69123;PMS5003;56232;53.384;-2.732;2023-07-02T06:27:30;10;5;
69123;PMS5003;56232;53.384;-2.732;2023-07-02T06:29:55;10;7;
69123;PMS5003;56232;53.384;-2.732;2023-07-02T06:32:20;8;6;
69123;PMS5003;56232;53.384;-2.732;2023-07-02T06:34:46;7;6;
69123;PMS5003;56232;53.384;-2.732;2023-07-02T06:37:11;5;4;
69123;PMS5003;56232;53.384;-2.732;2023-07-02T06:39:37;10;7;
69123;PMS5003;56232;53.384;-2.732;2023-07-02T06:42:03;8;8;
69123;PMS5003;56232;53.384;-2.732;2023-07-02T06:44:28;4;4;
69123;PMS5003;56232;53.384;-2.732;2023-07-02T06:46:54;6;5;
69123;PMS5003;56232;53.384;-2.732;2023-07-02T06:49:19;5;4;
69123;PMS5003;56232;53.384;-2.732;2023-07-02T06:51:44;9;8;
69123;PMS5003;56232;53.384;-2.732;2023-07-02T06:54:10;6;5;
69123;PMS5003;56232;53.384;-2.732;2023-07-02T06:56:35;11;8;
69123;PMS5003;56232;53.384;-2.732;2023-07-02T06:59:00;14;8;
69123;PMS5003;56232;53.384;-2.732;2023-07-02T07:01:26;6;5;
69123;PMS5003;56232;53.384;-2.732;2023-07-02T07:03:52;5;5;
69123;PMS5003;56232;53.384;-2.732;2023-07-02T07:06:18;9;7;
69123;PMS5003;56232;53.384;-2.732;2023-07-02T07:08:43;11;6;
69123;PMS5003;56232;53.384;-2.732;2023-07-02T07:11:09;7;5;
69123;PMS5003;56232;53.384;-2.732;2023-07-02T07:13:34;6;5;
69123;PMS5003;56232;53.384;-2.732;2023-07-02T07:15:59;6;5;
69123;PMS5003;56232;53.384;-2.732;2023-07-02T07:18:25;6;5;
69123;PMS5003;56232;53.384;-2.732;2023-07-02T07:20:50;15;9;
69123;PMS5003;56232;53.384;-2.732;2023-07-02T07:23:16;10;6;
69123;PMS5003;56232;53.384;-2.732;2023-07-02T07:25:41;7;5;
69123;PMS5003;56232;53.384;-2.732;2023-07-02T07:28:07;7;6;
69123;PMS5003;56232;53.384;-2.732;2023-07-02T07:30:32;8;5;
69123;PMS5003;56232;53.384;-2.732;2023-07-02T07:32:58;10;7;
69123;PMS5003;56232;53.384;-2.732;2023-07-02T07:35:23;4;4;
69123;PMS5003;56232;53.384;-2.732;2023-07-02T07:37:49;5;5;
69123;PMS5003;56232;53.384;-2.732;2023-07-02T07:40:14;5;5;
69123;PMS5003;56232;53.384;-2.732;2023-07-02T07:42:40;5;5;
69123;PMS5003;56232;53.384;-2.732;2023-07-02T07:45:06;7;6;
69123;PMS5003;56232;53.384;-2.732;2023-07-02T07:47:31;6;6;
69123;PMS5003;56232;53.384;-2.732;2023-07-02T07:49:56;6;5;
69123;PMS5003;56232;53.384;-2.732;2023-07-02T07:52:22;4;4;
69123;PMS5003;56232;53.384;-2.732;2023-07-02T07:54:47;8;7;
69123;PMS5003;56232;53.384;-2.732;2023-07-02T07:57:13;5;5;
69123;PMS5003;56232;53.384;-2.732;2023-07-02T07:59:38;6;5;
69123;PMS5003;56232;53.384;-2.732;2023-07-02T08:02:04;4;4;
69123;PMS5003;56232;53.384;-2.732;2023-07-02T08:04:29;8;5;
69123;PMS5003;56232;53.384;-2.732;2023-07-02T08:06:54;4;4;
69123;PMS5003;56232;53.384;-2.732;2023-07-02T08:09:20;4;4;
69123;PMS5003;56232;53.384;-2.732;2023-07-02T08:11:46;3;3;
69123;PMS5003;56232;53.384;-2.732;2023-07-02T08:14:12;5;4;
69123;PMS5003;56232;53.384;-2.732;2023-07-02T08:16:36;4;3;
69123;PMS5003;56232;53.384;-2.732;2023-07-02T08:19:02;4;4;
69123;PMS5003;56232;53.384;-2.732;2023-07-02T08:21:28;5;5;
69123;PMS5003;56232;53.384;-2.732;2023-07-02T08:23:53;5;4;
69123;PMS5003;56232;53.384;-2.732;2023-07-02T08:26:19;5;4;
69123;PMS5003;56232;53.384;-2.732;2023-07-02T08:28:45;3;2;
69123;PMS5003;56232;53.384;-2.732;2023-07-02T08:31:11;6;5;
69123;PMS5003;56232;53.384;-2.732;2023-07-02T08:33:36;3;3;
69123;PMS5003;56232;53.384;-2.732;2023-07-02T08:36:01;10;8;
69123;PMS5003;56232;53.384;-2.732;2023-07-02T08:38:27;6;5;
69123;PMS5003;56232;53.384;-2.732;2023-07-02T08:40:53;5;4;
69123;PMS5003;56232;53.384;-2.732;2023-07-02T08:43:18;3;3;
69123;PMS5003;56232;53.384;-2.732;2023-07-02T08:45:44;6;6;
69123;PMS5003;56232;53.384;-2.732;2023-07-02T08:48:10;3;3;
69123;PMS5003;56232;53.384;-2.732;2023-07-02T08:50:35;4;4;
69123;PMS5003;56232;53.384;-2.732;2023-07-02T08:53:00;6;3;
69123;PMS5003;56232;53.384;-2.732;2023-07-02T08:55:26;3;3;
69123;PMS5003;56232;53.384;-2.732;2023-07-02T08:57:52;10;8;
69123;PMS5003;56232;53.384;-2.732;2023-07-02T09:00:17;8;4;
69123;PMS5003;56232;53.384;-2.732;2023-07-02T09:02:42;4;3;
69123;PMS5003;56232;53.384;-2.732;2023-07-02T09:05:08;4;4;
69123;PMS5003;56232;53.384;-2.732;2023-07-02T09:09:59;4;4;
69123;PMS5003;56232;53.384;-2.732;2023-07-02T09:12:25;3;3;
69123;PMS5003;56232;53.384;-2.732;2023-07-02T09:14:54;8;7;
69123;PMS5003;56232;53.384;-2.732;2023-07-02T09:17:16;2;2;
69123;PMS5003;56232;53.384;-2.732;2023-07-02T09:22:07;2;2;
69123;PMS5003;56232;53.384;-2.732;2023-07-02T09:24:32;3;3;
69123;PMS5003;56232;53.384;-2.732;2023-07-02T09:26:58;4;3;
69123;PMS5003;56232;53.384;-2.732;2023-07-02T09:29:24;4;3;
69123;PMS5003;56232;53.384;-2.732;2023-07-02T09:31:49;3;3;
69123;PMS5003;56232;53.384;-2.732;2023-07-02T09:34:15;4;3;
69123;PMS5003;56232;53.384;-2.732;2023-07-02T09:36:40;6;6;
69123;PMS5003;56232;53.384;-2.732;2023-07-02T09:39:05;4;3;
69123;PMS5003;56232;53.384;-2.732;2023-07-02T09:41:31;5;3;
69123;PMS5003;56232;53.384;-2.732;2023-07-02T09:43:56;5;4;
69123;PMS5003;56232;53.384;-2.732;2023-07-02T09:46:22;4;4;
69123;PMS5003;56232;53.384;-2.732;2023-07-02T09:48:48;2;1;
69123;PMS5003;56232;53.384;-2.732;2023-07-02T09:51:13;5;3;
69123;PMS5003;56232;53.384;-2.732;2023-07-02T09:53:39;4;3;
69123;PMS5003;56232;53.384;-2.732;2023-07-02T09:56:04;3;3;
69123;PMS5003;56232;53.384;-2.732;2023-07-02T09:58:30;5;4;
69123;PMS5003;56232;53.384;-2.732;2023-07-02T10:00:56;3;2;
69123;PMS5003;56232;53.384;-2.732;2023-07-02T10:05:47;4;4;
69123;PMS5003;56232;53.384;-2.732;2023-07-02T10:08:13;2;2;
69123;PMS5003;56232;53.384;-2.732;2023-07-02T10:10:38;3;3;
69123;PMS5003;56232;53.384;-2.732;2023-07-02T10:13:04;7;4;
69123;PMS5003;56232;53.384;-2.732;2023-07-02T10:15:29;5;4;
69123;PMS5003;56232;53.384;-2.732;2023-07-02T10:17:55;5;5;
69123;PMS5003;56232;53.384;-2.732;2023-07-02T10:20:30;3;3;
69123;PMS5003;56232;53.384;-2.732;2023-07-02T10:22:47;8;4;
69123;PMS5003;56232;53.384;-2.732;2023-07-02T10:25:12;5;4;
69123;PMS5003;56232;53.384;-2.732;2023-07-02T10:27:38;5;2;
69123;PMS5003;56232;53.384;-2.732;2023-07-02T10:30:03;4;3;
69123;PMS5003;56232;53.384;-2.732;2023-07-02T10:32:29;5;4;
69123;PMS5003;56232;53.384;-2.732;2023-07-02T10:34:54;4;4;
69123;PMS5003;56232;53.384;-2.732;2023-07-02T10:37:20;4;3;
69123;PMS5003;56232;53.384;-2.732;2023-07-02T10:39:46;6;6;
69123;PMS5003;56232;53.384;-2.732;2023-07-02T10:42:12;3;2;
69123;PMS5003;56232;53.384;-2.732;2023-07-02T10:47:03;2;2;
69123;PMS5003;56232;53.384;-2.732;2023-07-02T10:49:31;5;4;
69123;PMS5003;56232;53.384;-2.732;2023-07-02T10:51:57;4;3;
69123;PMS5003;56232;53.384;-2.732;2023-07-02T10:54:19;4;3;
69123;PMS5003;56232;53.384;-2.732;2023-07-02T10:56:44;3;3;
69123;PMS5003;56232;53.384;-2.732;2023-07-02T10:59:10;3;3;
69123;PMS5003;56232;53.384;-2.732;2023-07-02T11:01:36;3;3;
69123;PMS5003;56232;53.384;-2.732;2023-07-02T11:04:02;3;2;
69123;PMS5003;56232;53.384;-2.732;2023-07-02T11:06:27;6;4;
69123;PMS5003;56232;53.384;-2.732;2023-07-02T11:08:52;2;2;
69123;PMS5003;56232;53.384;-2.732;2023-07-02T11:11:18;4;3;
69123;PMS5003;56232;53.384;-2.732;2023-07-02T11:13:44;3;2;
69123;PMS5003;56232;53.384;-2.732;2023-07-02T11:18:35;2;1;
69123;PMS5003;56232;53.384;-2.732;2023-07-02T11:21:08;3;3;
69123;PMS5003;56232;53.384;-2.732;2023-07-02T11:23:26;2;2;
69123;PMS5003;56232;53.384;-2.732;2023-07-02T11:25:55;2;2;
69123;PMS5003;56232;53.384;-2.732;2023-07-02T11:28:17;2;2;
69123;PMS5003;56232;53.384;-2.732;2023-07-02T11:30:44;4;3;
69123;PMS5003;56232;53.384;-2.732;2023-07-02T11:33:08;2;2;
69123;PMS5003;56232;53.384;-2.732;2023-07-02T11:35:34;3;3;
69123;PMS5003;56232;53.384;-2.732;2023-07-02T11:37:59;3;2;
69123;PMS5003;56232;53.384;-2.732;2023-07-02T11:40:25;5;2;
69123;PMS5003;56232;53.384;-2.732;2023-07-02T11:42:51;3;2;
69123;PMS5003;56232;53.384;-2.732;2023-07-02T11:45:16;5;4;
69123;PMS5003;56232;53.384;-2.732;2023-07-02T11:47:42;2;1;
69123;PMS5003;56232;53.384;-2.732;2023-07-02T11:50:08;1;1;
69123;PMS5003;56232;53.384;-2.732;2023-07-02T11:52:33;4;3;
69123;PMS5003;56232;53.384;-2.732;2023-07-02T11:54:58;2;2;
69123;PMS5003;56232;53.384;-2.732;2023-07-02T11:57:24;3;3;
69123;PMS5003;56232;53.384;-2.732;2023-07-02T11:59:50;3;3;
69123;PMS5003;56232;53.384;-2.732;2023-07-02T12:02:15;2;1;
69123;PMS5003;56232;53.384;-2.732;2023-07-02T12:04:40;3;3;
69123;PMS5003;56232;53.384;-2.732;2023-07-02T12:07:06;2;1;
69123;PMS5003;56232;53.384;-2.732;2023-07-02T12:09:32;3;2;
69123;PMS5003;56232;53.384;-2.732;2023-07-02T12:11:57;1;1;
69123;PMS5003;56232;53.384;-2.732;2023-07-02T12:14:23;3;3;
69123;PMS5003;56232;53.384;-2.732;2023-07-02T12:16:48;3;2;
69123;PMS5003;56232;53.384;-2.732;2023-07-02T12:19:13;2;1;
69123;PMS5003;56232;53.384;-2.732;2023-07-02T12:21:39;2;1;
69123;PMS5003;56232;53.384;-2.732;2023-07-02T12:24:05;6;4;
69123;PMS5003;56232;53.384;-2.732;2023-07-02T12:26:30;5;3;
69123;PMS5003;56232;53.384;-2.732;2023-07-02T12:28:56;1;1;
69123;PMS5003;56232;53.384;-2.732;2023-07-02T12:31:22;2;2;
69123;PMS5003;56232;53.384;-2.732;2023-07-02T12:33:47;2;2;
69123;PMS5003;56232;53.384;-2.732;2023-07-02T12:36:13;2;2;
69123;PMS5003;56232;53.384;-2.732;2023-07-02T12:38:38;3;2;
69123;PMS5003;56232;53.384;-2.732;2023-07-02T12:41:04;1;1;
69123;PMS5003;56232;53.384;-2.732;2023-07-02T12:43:29;2;2;
69123;PMS5003;56232;53.384;-2.732;2023-07-02T12:45:55;2;2;
69123;PMS5003;56232;53.384;-2.732;2023-07-02T12:48:20;2;2;
69123;PMS5003;56232;53.384;-2.732;2023-07-02T12:53:16;3;3;
69123;PMS5003;56232;53.384;-2.732;2023-07-02T12:55:37;2;2;
69123;PMS5003;56232;53.384;-2.732;2023-07-02T12:58:03;4;4;
69123;PMS5003;56232;53.384;-2.732;2023-07-02T13:00:28;2;2;
69123;PMS5003;56232;53.384;-2.732;2023-07-02T13:02:54;2;2;
69123;PMS5003;56232;53.384;-2.732;2023-07-02T13:05:20;4;3;
69123;PMS5003;56232;53.384;-2.732;2023-07-02T13:07:45;3;3;
69123;PMS5003;56232;53.384;-2.732;2023-07-02T13:10:11;1;1;
69123;PMS5003;56232;53.384;-2.732;2023-07-02T13:12:36;1;1;
69123;PMS5003;56232;53.384;-2.732;2023-07-02T13:15:02;3;2;
69123;PMS5003;56232;53.384;-2.732;2023-07-02T13:17:27;2;2;
69123;PMS5003;56232;53.384;-2.732;2023-07-02T13:19:53;3;2;
69123;PMS5003;56232;53.384;-2.732;2023-07-02T13:22:19;3;2;
69123;PMS5003;56232;53.384;-2.732;2023-07-02T13:24:44;3;2;
69123;PMS5003;56232;53.384;-2.732;2023-07-02T13:27:12;3;3;
69123;PMS5003;56232;53.384;-2.732;2023-07-02T13:29:35;1;1;
69123;PMS5003;56232;53.384;-2.732;2023-07-02T13:32:01;5;3;
69123;PMS5003;56232;53.384;-2.732;2023-07-02T13:34:27;4;3;
69123;PMS5003;56232;53.384;-2.732;2023-07-02T13:36:52;2;1;
69123;PMS5003;56232;53.384;-2.732;2023-07-02T13:39:18;4;2;
69123;PMS5003;56232;53.384;-2.732;2023-07-02T13:41:43;1;0;
69123;PMS5003;56232;53.384;-2.732;2023-07-02T13:44:09;3;3;
69123;PMS5003;56232;53.384;-2.732;2023-07-02T13:46:34;1;1;
69123;PMS5003;56232;53.384;-2.732;2023-07-02T13:49:00;3;3;
69123;PMS5003;56232;53.384;-2.732;2023-07-02T13:51:25;3;3;
69123;PMS5003;56232;53.384;-2.732;2023-07-02T13:53:51;1;0;
69123;PMS5003;56232;53.384;-2.732;2023-07-02T13:56:16;2;0;
69123;PMS5003;56232;53.384;-2.732;2023-07-02T14:01:07;3;2;
69123;PMS5003;56232;53.384;-2.732;2023-07-02T14:03:33;2;1;
69123;PMS5003;56232;53.384;-2.732;2023-07-02T14:05:58;1;1;
69123;PMS5003;56232;53.384;-2.732;2023-07-02T14:08:24;1;1;
69123;PMS5003;56232;53.384;-2.732;2023-07-02T14:10:50;3;2;
69123;PMS5003;56232;53.384;-2.732;2023-07-02T14:13:15;2;2;
69123;PMS5003;56232;53.384;-2.732;2023-07-02T14:15:41;1;1;
69123;PMS5003;56232;53.384;-2.732;2023-07-02T14:18:06;3;2;
69123;PMS5003;56232;53.384;-2.732;2023-07-02T14:20:32;3;2;
69123;PMS5003;56232;53.384;-2.732;2023-07-02T14:22:58;5;4;
69123;PMS5003;56232;53.384;-2.732;2023-07-02T14:25:23;5;3;
69123;PMS5003;56232;53.384;-2.732;2023-07-02T14:27:48;3;2;
69123;PMS5003;56232;53.384;-2.732;2023-07-02T14:30:14;2;2;
69123;PMS5003;56232;53.384;-2.732;2023-07-02T14:32:39;4;2;
69123;PMS5003;56232;53.384;-2.732;2023-07-02T14:35:05;4;4;
69123;PMS5003;56232;53.384;-2.732;2023-07-02T14:37:31;3;3;
69123;PMS5003;56232;53.384;-2.732;2023-07-02T14:39:56;1;1;
69123;PMS5003;56232;53.384;-2.732;2023-07-02T14:42:22;4;3;
69123;PMS5003;56232;53.384;-2.732;2023-07-02T14:44:47;3;3;
69123;PMS5003;56232;53.384;-2.732;2023-07-02T14:47:18;2;2;
69123;PMS5003;56232;53.384;-2.732;2023-07-02T14:49:38;2;2;
69123;PMS5003;56232;53.384;-2.732;2023-07-02T14:52:04;2;2;
69123;PMS5003;56232;53.384;-2.732;2023-07-02T14:54:30;2;2;
69123;PMS5003;56232;53.384;-2.732;2023-07-02T14:56:55;1;1;
69123;PMS5003;56232;53.384;-2.732;2023-07-02T14:59:21;3;2;
69123;PMS5003;56232;53.384;-2.732;2023-07-02T15:01:46;2;2;
69123;PMS5003;56232;53.384;-2.732;2023-07-02T15:04:17;3;2;
69123;PMS5003;56232;53.384;-2.732;2023-07-02T15:06:38;2;1;
69123;PMS5003;56232;53.384;-2.732;2023-07-02T15:09:03;2;2;
69123;PMS5003;56232;53.384;-2.732;2023-07-02T15:11:29;2;2;
69123;PMS5003;56232;53.384;-2.732;2023-07-02T15:13:54;3;2;
69123;PMS5003;56232;53.384;-2.732;2023-07-02T15:16:20;2;2;
69123;PMS5003;56232;53.384;-2.732;2023-07-02T15:18:46;1;1;
69123;PMS5003;56232;53.384;-2.732;2023-07-02T15:21:12;0;0;
69123;PMS5003;56232;53.384;-2.732;2023-07-02T15:23:37;2;2;
69123;PMS5003;56232;53.384;-2.732;2023-07-02T15:26:03;1;1;
69123;PMS5003;56232;53.384;-2.732;2023-07-02T15:28:28;1;0;
69123;PMS5003;56232;53.384;-2.732;2023-07-02T15:30:54;1;1;
69123;PMS5003;56232;53.384;-2.732;2023-07-02T15:33:19;3;2;
69123;PMS5003;56232;53.384;-2.732;2023-07-02T15:35:45;1;1;
69123;PMS5003;56232;53.384;-2.732;2023-07-02T15:38:10;2;1;
69123;PMS5003;56232;53.384;-2.732;2023-07-02T15:40:36;3;2;
69123;PMS5003;56232;53.384;-2.732;2023-07-02T15:43:01;2;2;
69123;PMS5003;56232;53.384;-2.732;2023-07-02T15:45:27;3;1;
69123;PMS5003;56232;53.384;-2.732;2023-07-02T15:47:52;1;1;
69123;PMS5003;56232;53.384;-2.732;2023-07-02T15:50:18;1;1;
69123;PMS5003;56232;53.384;-2.732;2023-07-02T15:52:44;2;2;
69123;PMS5003;56232;53.384;-2.732;2023-07-02T15:55:09;2;2;
69123;PMS5003;56232;53.384;-2.732;2023-07-02T15:57:36;1;1;
69123;PMS5003;56232;53.384;-2.732;2023-07-02T16:00:00;2;1;
69123;PMS5003;56232;53.384;-2.732;2023-07-02T16:02:26;2;2;
69123;PMS5003;56232;53.384;-2.732;2023-07-02T16:04:51;0;0;
69123;PMS5003;56232;53.384;-2.732;2023-07-02T16:07:17;0;0;
69123;PMS5003;56232;53.384;-2.732;2023-07-02T16:09:42;1;1;
69123;PMS5003;56232;53.384;-2.732;2023-07-02T16:12:08;4;4;
69123;PMS5003;56232;53.384;-2.732;2023-07-02T16:14:34;3;2;
69123;PMS5003;56232;53.384;-2.732;2023-07-02T16:16:59;3;1;
69123;PMS5003;56232;53.384;-2.732;2023-07-02T16:19:24;2;2;
69123;PMS5003;56232;53.384;-2.732;2023-07-02T16:21:50;2;2;
69123;PMS5003;56232;53.384;-2.732;2023-07-02T16:24:16;1;1;
69123;PMS5003;56232;53.384;-2.732;2023-07-02T16:26:41;1;1;
69123;PMS5003;56232;53.384;-2.732;2023-07-02T16:29:07;2;2;
69123;PMS5003;56232;53.384;-2.732;2023-07-02T16:31:32;2;2;
69123;PMS5003;56232;53.384;-2.732;2023-07-02T16:33:58;2;2;
69123;PMS5003;56232;53.384;-2.732;2023-07-02T16:36:23;1;1;